ADDS TAF Board (Experimental) INFO

IDs: Format: Expanded Condensed

Updated at: 1126 UTC 16 Sep 2014

KBWI - Baltimore-Washington, MD, US

Issued at 0848 UTC 16 Sep 2014
Time1054Z16/12Z16/13Z16/14Z16/15Z16/16Z16/17Z16/18Z16/19Z16/20Z16/21Z16/22Z16/23Z17/00Z
TypeOBSPRVLPRVLPRVLPRVLPRVLPRVLPRVLPRVLPRVLPRVLPRVLPRVLPRVL
VIS8>6>6>6>6>6>6>6>6>6>6>6>6>6
CIG1005050----------------------
CoverBKNBKNBKNSCTSCTSCTSCTSCTSCTSCTSCTSCTSCTSCT
FltCat--VFRVFRVFRVFRVFRVFRVFRVFRVFRVFRVFRVFRVFR
WX----------------------------
WDir280280280310310310310310310310310310310310
WSpd45577777777777
WGst----------------------------
R04/22
XWnd45577777777777
HWnd-2-2-211111111111
R10/28
XWnd01144444444444
HWnd-4-5-5-6-6-6-6-6-6-6-6-6-6-6
R15/33
XWnd-3-3-3-2-2-2-2-2-2-2-2-2-2-2
HWnd-3-4-4-7-7-7-7-7-7-7-7-7-7-7
Raw TAF
KBWI 160848Z 1609/1712 VRB03KT P6SM SCT020 BKN120
  FM161200 28005KT P6SM BKN050
  FM161400 31007KT P6SM SCT070
  FM170800 01004KT P6SM FEW060


Raw METAR
KBWI 161054Z 28004KT 8SM FEW045 BKN100 BKN140 15/14 A3000 RMK AO2 SLP159 T01500144

TAF Board Legend

Hazard VFR MVFR IFR LIFR
Visibility (sm) >5 3≤X≤5 1≤X<3 <1
Ceiling (100 ft) >30 10≤X≤30 5≤X<10 <5
Wind Speed (kt) <10 10≤X<20 20≤X<30 ≥30
Wind Gust (kt) <15 15≤X<25 25≤X<35 ≥35
Weather No Wx Reported VCTS,-TS,-FZRA TS,FZRA +TS,+FZRA


Page loaded:  11:26 UTC  |   04:26 AM Pacific  |   05:26 AM Mountain  |   06:26 AM Central  |   07:26 AM Eastern

 

ADVISORIES

FORECASTS

FORECASTS

OBSERVATIONS

USER TOOLS

ABOUT US